createdAt,value
2023-05-09T00:02:19.232Z,4.97
2023-05-09T00:07:21.752Z,6.10
2023-05-09T00:12:24.423Z,5.33
2023-05-09T00:17:28.770Z,5.30
2023-05-09T00:22:31.120Z,5.57
2023-05-09T00:27:33.400Z,6.20
2023-05-09T00:32:36.033Z,5.60
2023-05-09T00:37:38.398Z,5.73
2023-05-09T00:42:40.917Z,4.80
2023-05-09T00:47:43.621Z,5.60
2023-05-09T00:52:45.958Z,4.40
2023-05-09T00:57:48.296Z,4.60
2023-05-09T01:02:55.117Z,6.00
2023-05-09T01:08:35.924Z,6.80
2023-05-09T01:14:24.608Z,5.87
2023-05-09T01:19:51.396Z,6.33
2023-05-09T01:25:15.802Z,6.20
2023-05-09T01:30:20.177Z,5.43
2023-05-09T01:35:26.497Z,5.13
2023-05-09T01:40:33.735Z,4.80
2023-05-09T01:45:39.183Z,3.77
2023-05-09T01:50:43.865Z,3.90
2023-05-09T01:55:47.898Z,4.53
2023-05-09T02:00:51.469Z,4.90
2023-05-09T02:05:56.115Z,4.57
2023-05-09T02:10:58.921Z,5.73
2023-05-09T02:16:01.906Z,6.73
2023-05-09T02:21:04.654Z,6.63
2023-05-09T02:26:07.185Z,6.00
2023-05-09T02:31:12.584Z,6.10
2023-05-09T02:36:18.884Z,6.70
2023-05-09T02:41:21.922Z,7.67
2023-05-09T02:46:24.493Z,7.00
2023-05-09T02:51:26.738Z,8.47
2023-05-09T02:56:28.969Z,6.53
2023-05-09T03:01:31.357Z,7.77
2023-05-09T03:06:33.939Z,8.43
2023-05-09T03:11:36.974Z,7.37
2023-05-09T03:16:39.538Z,6.40
2023-05-09T03:21:48.055Z,7.40
2023-05-09T03:26:50.779Z,7.83
2023-05-09T03:31:53.140Z,7.63
2023-05-09T03:36:55.505Z,7.30
2023-05-09T03:41:58.633Z,6.67
2023-05-09T03:47:01.211Z,6.93
2023-05-09T03:52:09.487Z,6.50
2023-05-09T03:57:12.408Z,6.77
2023-05-09T04:02:15.626Z,6.07
2023-05-09T04:07:20.877Z,6.47
2023-05-09T04:12:23.173Z,6.30
2023-05-09T04:17:26.251Z,6.00
2023-05-09T04:22:28.789Z,6.97
2023-05-09T04:27:31.908Z,6.70
2023-05-09T04:32:35.938Z,7.13
2023-05-09T04:37:38.668Z,6.43
2023-05-09T04:42:42.321Z,6.40
2023-05-09T04:47:45.052Z,6.40
2023-05-09T04:52:47.473Z,5.83
2023-05-09T04:57:50.827Z,5.70
2023-05-09T05:02:53.161Z,7.03
2023-05-09T05:07:55.635Z,6.33
2023-05-09T05:13:02.714Z,6.90
2023-05-09T05:18:05.202Z,7.80
2023-05-09T05:23:10.587Z,9.43
2023-05-09T05:28:13.460Z,7.70
2023-05-09T05:33:16.664Z,9.30
2023-05-09T05:38:19.064Z,10.10
2023-05-09T05:43:25.493Z,9.53
2023-05-09T05:48:28.191Z,7.90
2023-05-09T05:53:32.629Z,8.27
2023-05-09T05:58:35.666Z,8.03
2023-05-09T06:03:38.812Z,9.30
2023-05-09T06:08:42.337Z,7.70
2023-05-09T06:13:45.083Z,7.60
2023-05-09T06:18:48.457Z,8.10
2023-05-09T06:24:07.768Z,7.00
2023-05-09T06:29:14.327Z,6.73
2023-05-09T06:34:16.717Z,7.73
2023-05-09T06:39:19.057Z,6.30
2023-05-09T06:44:21.333Z,6.30
2023-05-09T06:49:23.619Z,6.00
2023-05-09T06:54:25.956Z,6.27
2023-05-09T06:59:28.374Z,6.43
2023-05-09T07:04:31.984Z,6.80
2023-05-09T07:09:34.236Z,7.80
2023-05-09T07:14:36.518Z,8.27
2023-05-09T07:19:38.729Z,7.50
2023-05-09T07:24:40.807Z,7.30
2023-05-09T07:29:42.921Z,7.50
2023-05-09T07:34:45.506Z,8.70
2023-05-09T07:39:47.655Z,8.77
2023-05-09T07:44:50.044Z,10.07
2023-05-09T07:49:52.332Z,9.87
2023-05-09T07:54:54.664Z,7.47
2023-05-09T07:59:57.041Z,7.60
2023-05-09T08:04:59.146Z,4.83
2023-05-09T08:10:01.545Z,5.50
2023-05-09T08:15:05.316Z,5.10
2023-05-09T08:20:09.122Z,5.10
2023-05-09T08:25:12.616Z,4.97
2023-05-09T08:30:15.502Z,4.50
2023-05-09T08:35:17.948Z,4.33
2023-05-09T08:40:20.356Z,4.40
2023-05-09T08:45:29.914Z,3.73
2023-05-09T08:50:32.332Z,4.00
2023-05-09T08:55:34.945Z,3.07
2023-05-09T09:00:41.166Z,2.87
2023-05-09T09:05:45.120Z,3.90
2023-05-09T09:10:48.388Z,3.57
2023-05-09T09:15:53.563Z,3.03
2023-05-09T09:21:06.903Z,3.30
2023-05-09T09:26:09.973Z,3.30
2023-05-09T09:31:33.228Z,2.80
2023-05-09T09:36:38.400Z,2.63
2023-05-09T09:41:41.403Z,2.70
2023-05-09T09:46:56.397Z,2.30
2023-05-09T09:51:59.669Z,2.63
2023-05-09T09:57:02.028Z,2.37
2023-05-09T10:02:09.004Z,2.60
2023-05-09T10:07:14.597Z,2.40
2023-05-09T10:12:20.064Z,2.50
2023-05-09T10:17:23.373Z,2.37
2023-05-09T10:22:25.900Z,2.40
2023-05-09T10:27:32.177Z,2.43
2023-05-09T10:32:45.809Z,1.97
2023-05-09T10:37:49.090Z,1.50
2023-05-09T10:42:51.415Z,2.10
2023-05-09T10:47:56.683Z,2.30
2023-05-09T10:53:08.013Z,1.97
2023-05-09T10:58:33.738Z,1.60
2023-05-09T11:03:59.011Z,1.60
2023-05-09T11:09:32.705Z,1.60
2023-05-09T11:14:38.149Z,1.87
2023-05-09T11:19:46.168Z,1.53
2023-05-09T11:24:51.602Z,1.97
2023-05-09T11:29:58.652Z,1.70
2023-05-09T11:35:17.108Z,1.40
2023-05-09T11:40:22.059Z,1.77
2023-05-09T11:45:31.663Z,1.50
2023-05-09T11:50:33.932Z,1.40
2023-05-09T11:55:38.458Z,1.80
2023-05-09T12:00:47.242Z,1.20
2023-05-09T12:05:49.538Z,1.10
2023-05-09T12:10:51.911Z,1.30
2023-05-09T12:16:04.439Z,1.77
2023-05-09T12:21:07.440Z,1.00
2023-05-09T12:26:09.934Z,1.30
2023-05-09T12:31:13.089Z,1.37
2023-05-09T12:36:16.347Z,1.43
2023-05-09T12:41:30.860Z,1.40
2023-05-09T12:46:38.187Z,1.23
2023-05-09T12:51:50.459Z,1.60
2023-05-09T12:56:56.792Z,1.33
2023-05-09T13:02:01.908Z,1.17
2023-05-09T13:07:12.740Z,1.80
2023-05-09T13:12:14.923Z,1.53
2023-05-09T13:17:17.210Z,1.37
2023-05-09T13:22:19.426Z,2.03
2023-05-09T13:27:21.652Z,1.80
2023-05-09T13:32:25.037Z,1.40
2023-05-09T13:37:28.259Z,1.40
2023-05-09T13:42:31.124Z,1.60
2023-05-09T13:47:33.648Z,1.43
2023-05-09T13:52:35.870Z,1.90
2023-05-09T13:57:38.080Z,2.43
2023-05-09T14:02:40.757Z,2.10
2023-05-09T14:07:43.274Z,2.30
2023-05-09T14:12:47.279Z,2.10
2023-05-09T14:17:49.658Z,2.17
2023-05-09T14:22:51.973Z,2.80
2023-05-09T14:27:54.508Z,3.10
2023-05-09T14:32:56.744Z,3.10
2023-05-09T14:37:58.992Z,3.23
2023-05-09T14:43:04.608Z,4.17
2023-05-09T14:48:07.007Z,3.57
2023-05-09T14:53:11.267Z,3.30
2023-05-09T14:58:13.856Z,2.70
2023-05-09T15:03:16.106Z,3.43
2023-05-09T15:08:18.590Z,2.90
2023-05-09T15:13:21.114Z,1.60
2023-05-09T15:18:27.004Z,1.57
2023-05-09T15:23:29.191Z,1.47
2023-05-09T15:28:31.423Z,1.50
2023-05-09T15:33:33.566Z,1.47
2023-05-09T15:38:35.720Z,1.60
2023-05-09T15:43:37.949Z,2.37
2023-05-09T15:48:40.120Z,2.10
2023-05-09T15:53:42.630Z,2.43
2023-05-09T15:58:44.907Z,2.40
2023-05-09T16:03:47.262Z,2.30
2023-05-09T16:08:49.672Z,2.70
2023-05-09T16:13:51.944Z,3.37
2023-05-09T16:18:54.183Z,4.20
2023-05-09T16:23:58.123Z,3.60
2023-05-09T16:29:02.808Z,3.87
2023-05-09T16:34:06.294Z,3.60
2023-05-09T16:39:08.798Z,3.57
2023-05-09T16:44:11.238Z,3.50
2023-05-09T16:49:15.248Z,3.23
2023-05-09T16:54:17.410Z,2.73
2023-05-09T16:59:20.319Z,2.73
2023-05-09T17:04:22.562Z,3.27
2023-05-09T17:09:24.728Z,3.20
2023-05-09T17:14:26.955Z,2.80
2023-05-09T17:19:29.499Z,2.60
2023-05-09T17:24:32.592Z,3.40
2023-05-09T17:29:34.672Z,3.57
2023-05-09T17:34:38.135Z,2.70
2023-05-09T17:39:42.213Z,3.03
2023-05-09T17:44:44.617Z,3.00
2023-05-09T17:49:46.769Z,3.93
2023-05-09T17:54:48.887Z,3.00
2023-05-09T17:59:51.819Z,3.33
2023-05-09T18:04:54.273Z,3.10
2023-05-09T18:09:57.284Z,3.17
2023-05-09T18:14:59.470Z,2.90
2023-05-09T18:20:02.034Z,2.50
2023-05-09T18:25:04.532Z,2.57
2023-05-09T18:30:07.681Z,2.80
2023-05-09T18:35:10.441Z,2.50
2023-05-09T18:40:15.538Z,2.20
2023-05-09T18:45:18.227Z,2.53
2023-05-09T18:50:20.633Z,2.27
2023-05-09T18:55:23.275Z,2.30
2023-05-09T19:00:25.382Z,2.43
2023-05-09T19:05:27.933Z,2.57
2023-05-09T19:10:30.836Z,2.67
2023-05-09T19:15:33.363Z,2.03
2023-05-09T19:20:35.546Z,2.03
2023-05-09T19:25:37.761Z,1.80
2023-05-09T19:30:40.254Z,1.90
2023-05-09T19:35:43.242Z,2.13
2023-05-09T19:40:45.531Z,1.37
2023-05-09T19:45:47.672Z,1.30
2023-05-09T19:50:49.965Z,1.40
2023-05-09T19:55:52.566Z,1.00
2023-05-09T20:00:54.775Z,1.10
2023-05-09T20:05:57.065Z,1.10
2023-05-09T20:11:00.165Z,1.30
2023-05-09T20:16:03.687Z,1.00
2023-05-09T20:21:09.695Z,1.50
2023-05-09T20:26:12.013Z,1.37
2023-05-09T20:31:14.241Z,1.30
2023-05-09T20:36:16.464Z,1.20
2023-05-09T20:41:18.769Z,1.20
2023-05-09T20:46:21.112Z,1.33
2023-05-09T20:51:23.415Z,0.90
2023-05-09T20:56:29.216Z,1.10
2023-05-09T21:01:32.552Z,1.17
2023-05-09T21:06:38.302Z,1.00
2023-05-09T21:11:40.745Z,1.00
2023-05-09T21:16:43.951Z,1.20
2023-05-09T21:21:46.224Z,0.90
2023-05-09T21:26:48.409Z,0.77
2023-05-09T21:31:50.618Z,0.80
2023-05-09T21:36:52.826Z,0.80
2023-05-09T21:41:55.044Z,0.80
2023-05-09T21:46:57.415Z,1.00
2023-05-09T21:51:59.928Z,1.10
2023-05-09T21:57:02.185Z,0.93
2023-05-09T22:02:04.583Z,0.90
2023-05-09T22:07:07.099Z,1.10
2023-05-09T22:12:09.441Z,1.00
2023-05-09T22:17:11.674Z,0.80
2023-05-09T22:22:14.022Z,0.90
2023-05-09T22:27:16.502Z,0.83
2023-05-09T22:32:18.758Z,0.87
2023-05-09T22:37:21.721Z,0.90
2023-05-09T22:42:23.819Z,0.90
2023-05-09T22:47:26.053Z,1.00
2023-05-09T22:52:28.388Z,0.90
2023-05-09T22:57:31.466Z,1.00
2023-05-09T23:02:33.746Z,1.00
2023-05-09T23:07:36.083Z,0.97
2023-05-09T23:12:38.337Z,1.10
2023-05-09T23:17:40.635Z,1.10
2023-05-09T23:22:42.976Z,1.10
2023-05-09T23:27:46.767Z,1.00
2023-05-09T23:32:49.117Z,0.90
2023-05-09T23:37:51.572Z,1.03
2023-05-09T23:42:53.664Z,1.30
2023-05-09T23:47:57.112Z,1.33
2023-05-09T23:52:59.372Z,1.23
2023-05-09T23:58:02.495Z,1.07
